Time;durP1;ratioP1;P1;durP2;ratioP2;P2;SDS_P1;SDS_P2;PMS_P1;PMS_P2;Temp;Humidity;BMP_temperature;BMP_pressure;BME280_temperature;BME280_humidity;BME280_pressure;Samples;Min_cycle;Max_cycle;Signal;HPM_P1;HPM_P2
2021/11/09 00:01:17;;;;;;;9.45;4.15;;;4.40;99.90;;;2.55;100.00;102178.50;2567196;30;138400;-39
2021/11/09 00:03:49;;;;;;;13.25;4.43;;;4.40;99.90;;;2.51;100.00;102166.25;2565492;30;137556;-39
2021/11/09 00:06:21;;;;;;;11.50;4.85;;;4.40;99.90;;;2.49;100.00;102168.22;2568891;30;136634;-39
2021/11/09 00:09:05;;;;;;;17.38;6.30;;;4.30;99.90;;;2.50;100.00;102169.91;2568479;30;137514;-39
2021/11/09 00:11:34;;;;;;;14.70;5.20;;;4.40;99.90;;;2.48;100.00;102166.50;2568548;30;138317;-39
2021/11/09 00:14:02;;;;;;;15.98;5.03;;;4.30;99.90;;;2.48;100.00;102157.56;2567658;30;137018;-39
2021/11/09 00:16:31;;;;;;;;;;;4.40;99.90;;;2.56;100.00;102165.88;2568125;30;137404;-39
2021/11/09 00:19:00;;;;;;;12.97;5.00;;;4.40;99.90;;;2.55;100.00;102167.72;2568394;30;136689;-39
2021/11/09 00:21:29;;;;;;;12.30;4.60;;;4.40;99.90;;;2.55;100.00;102174.94;2567554;30;137316;-39
2021/11/09 00:24:01;;;;;;;9.90;4.55;;;4.40;99.90;;;2.52;100.00;102172.50;2567132;30;137498;-39
2021/11/09 00:26:29;;;;;;;13.02;4.55;;;4.40;99.90;;;2.46;100.00;102175.72;2567903;30;137271;-39
2021/11/09 00:28:58;;;;;;;13.70;4.47;;;4.30;99.90;;;2.39;100.00;102181.59;2565605;30;137354;-39
2021/11/09 00:31:26;;;;;;;15.35;5.22;;;4.30;99.90;;;2.33;100.00;102179.38;2565945;30;138179;-39
2021/11/09 00:33:54;;;;;;;8.35;4.25;;;4.20;99.90;;;2.28;100.00;102182.47;2566349;30;137984;-39
2021/11/09 00:36:23;;;;;;;8.55;4.50;;;4.20;99.90;;;2.25;100.00;102181.84;2567045;30;138511;-39
2021/11/09 00:38:51;;;;;;;8.85;4.15;;;4.10;99.90;;;2.22;100.00;102182.09;2566477;30;137238;-39
2021/11/09 00:41:18;;;;;;;;;;;4.10;99.90;;;2.19;100.00;102185.06;2564803;30;138328;-39
2021/11/09 00:43:46;;;;;;;9.93;4.57;;;4.00;99.90;;;2.15;100.00;102192.50;2568604;30;137112;-39
2021/11/09 00:46:13;;;;;;;11.07;4.30;;;4.00;99.90;;;2.11;100.00;102191.88;2566044;30;138553;-40
2021/11/09 00:48:41;;;;;;;8.15;3.85;;;4.00;99.90;;;2.07;100.00;102186.88;2567638;30;137402;-39
2021/11/09 00:51:09;;;;;;;9.13;4.32;;;3.90;99.90;;;2.04;100.00;102196.06;2564405;30;138279;-39
2021/11/09 00:53:39;;;;;;;;;;;3.90;99.90;;;2.01;100.00;102190.94;2568072;30;137294;-39
2021/11/09 00:56:07;;;;;;;12.70;4.32;;;3.90;99.90;;;1.95;100.00;102180.66;2566188;30;138384;-39
2021/11/09 00:58:34;;;;;;;9.75;3.88;;;3.80;99.90;;;1.90;100.00;102189.09;2568258;30;137477;-39
2021/11/09 01:01:03;;;;;;;10.75;4.13;;;3.80;99.90;;;1.85;100.00;102183.22;2567628;30;138702;-39
2021/11/09 01:03:30;;;;;;;13.80;4.32;;;3.80;99.90;;;1.84;100.00;102187.72;2566894;30;136607;-39
2021/11/09 01:05:59;;;;;;;9.82;3.95;;;3.70;99.90;;;1.82;100.00;102186.16;2568421;30;139041;-39
2021/11/09 01:08:27;;;;;;;10.65;4.65;;;3.70;99.90;;;1.83;100.00;102191.41;2567635;30;137730;-39
2021/11/09 01:10:55;;;;;;;;;;;3.70;99.90;;;1.85;100.00;102189.44;2567354;30;139052;-39
2021/11/09 01:13:27;;;;;;;12.95;4.70;;;3.70;99.90;;;1.83;100.00;102198.63;2568024;30;137310;-39
2021/11/09 01:15:57;;;;;;;11.85;4.00;;;3.70;99.90;;;1.77;100.00;102194.56;2566927;30;138108;-39
2021/11/09 01:18:34;;;;;;;10.55;4.45;;;3.60;99.90;;;1.75;100.00;102201.06;2568742;30;136803;-39
2021/11/09 01:21:04;;;;;;;13.68;4.60;;;3.60;99.90;;;1.70;100.00;102196.88;2567339;30;138466;-39
2021/11/09 01:23:33;;;;;;;13.80;5.35;;;3.60;99.90;;;1.67;100.00;102198.97;2567275;30;137427;-40
2021/11/09 01:26:03;;;;;;;10.65;4.40;;;3.60;99.90;;;1.67;100.00;102198.97;2567623;30;137743;-39
2021/11/09 01:28:31;;;;;;;10.45;4.20;;;3.60;99.90;;;1.64;100.00;102199.22;2566935;30;138235;-39
2021/11/09 01:30:59;;;;;;;;;;;3.50;99.90;;;1.62;100.00;102196.63;2567566;30;138210;-39
2021/11/09 01:33:27;;;;;;;8.35;3.88;;;3.50;99.90;;;1.62;100.00;102195.78;2566434;30;138027;-39
2021/11/09 01:35:59;;;;;;;11.68;4.40;;;3.50;99.90;;;1.62;100.00;102191.25;2567473;30;138395;-39
2021/11/09 01:38:29;;;;;;;12.88;5.18;;;3.50;99.90;;;1.65;100.00;102184.78;2567356;30;137501;-39
2021/11/09 01:40:56;;;;;;;;;;;3.50;99.90;;;1.68;100.00;102173.78;2568162;30;138212;-39
2021/11/09 01:43:27;;;;;;;11.07;4.45;;;3.50;99.90;;;1.68;100.00;102166.56;2567083;30;137655;-39
2021/11/09 01:45:56;;;;;;;18.17;5.63;;;3.50;99.90;;;1.66;100.00;102159.59;2567946;30;139269;-39
2021/11/09 01:48:25;;;;;;;14.75;4.88;;;3.50;99.90;;;1.62;100.00;102166.19;2569037;30;137420;-39
2021/11/09 01:50:59;;;;;;;11.45;4.70;;;3.50;99.90;;;1.61;100.00;102161.81;2567700;30;138428;-39
2021/11/09 01:53:28;;;;;;;11.27;4.85;;;3.50;99.90;;;1.61;100.00;102167.19;2567432;30;137031;-39
2021/11/09 01:55:58;;;;;;;14.00;5.05;;;3.50;99.90;;;1.63;100.00;102170.59;2568265;30;137229;-39
2021/11/09 01:58:26;;;;;;;11.80;5.03;;;3.50;99.90;;;1.66;100.00;102186.50;2567986;30;137675;-39
2021/11/09 02:01:03;;;;;;;14.93;5.00;;;3.50;99.90;;;1.65;100.00;102190.19;2567089;30;138246;-39
2021/11/09 02:03:34;;;;;;;10.90;4.60;;;3.50;99.90;;;1.64;100.00;102183.09;2568434;30;137344;-39
2021/11/09 02:06:02;;;;;;;10.20;4.25;;;3.50;99.90;;;1.59;100.00;102188.81;2567850;30;139263;-39
2021/11/09 02:08:30;;;;;;;8.85;3.95;;;3.50;99.90;;;1.55;100.00;102190.03;2567975;30;137671;-39
2021/11/09 02:10:57;;;;;;;9.20;4.22;;;3.40;99.90;;;1.47;100.00;102187.94;2568274;30;138080;-39
2021/11/09 02:13:26;;;;;;;14.32;4.88;;;3.40;99.90;;;1.48;100.00;102195.03;2568059;30;137303;-39
2021/11/09 02:15:54;;;;;;;11.95;4.20;;;3.40;99.90;;;1.47;100.00;102203.22;2568477;30;137471;-39
2021/11/09 02:18:22;;;;;;;12.23;4.68;;;3.40;99.90;;;1.40;100.00;102203.69;2568409;30;137085;-39
2021/11/09 02:21:03;;;;;;;9.85;4.10;;;3.30;99.90;;;1.36;100.00;102209.44;2567226;30;138015;-39
2021/11/09 02:23:33;;;;;;;9.60;4.10;;;3.30;99.90;;;1.31;100.00;102201.72;2567042;30;137366;-39
2021/11/09 02:26:03;;;;;;;10.40;4.00;;;3.20;99.90;;;1.29;100.00;102207.19;2567319;30;140241;-39
2021/11/09 02:28:31;;;;;;;10.68;4.60;;;3.20;99.90;;;1.29;100.00;102207.19;2568800;30;137533;-39
2021/11/09 02:30:59;;;;;;;11.45;4.53;;;3.20;99.90;;;1.28;100.00;102205.47;2568549;30;138091;-39
2021/11/09 02:33:27;;;;;;;12.85;4.30;;;3.20;99.90;;;1.22;100.00;102211.34;2568542;30;136948;-39
2021/11/09 02:35:55;;;;;;;9.73;4.00;;;3.10;99.90;;;1.18;100.00;102212.53;2567484;30;138990;-39
2021/11/09 02:38:23;;;;;;;7.20;3.97;;;3.10;99.90;;;1.12;100.00;102211.16;2567163;30;138529;-39
2021/11/09 02:40:50;;;;;;;9.90;3.88;;;3.00;99.90;;;1.10;100.00;102214.97;2568455;30;138301;-39
2021/11/09 02:43:19;;;;;;;9.55;4.43;;;3.00;99.90;;;1.08;100.00;102214.22;2568800;30;137464;-39
2021/11/09 02:49:19;;;;;;;11.60;5.05;;;3.00;99.90;;;1.08;100.00;102212.38;2568037;30;138321;-39
2021/11/09 02:51:31;;;;;;;9.43;4.60;;;3.00;99.90;;;1.11;100.00;102220.22;2566432;30;137270;-39
2021/11/09 02:56:47;;;;;;;8.05;4.30;;;3.00;99.90;;;1.06;100.00;102224.19;2567255;30;139073;-39
2021/11/09 03:04:37;;;;;;;6.05;3.33;;;2.90;99.90;;;1.03;100.00;102216.38;2567106;30;137298;-39
2021/11/09 03:07:23;;;;;;;11.05;4.03;;;3.00;99.90;;;1.03;100.00;102211.00;2569169;30;137567;-39
2021/11/09 03:09:58;;;;;;;10.32;3.72;;;2.90;99.90;;;0.99;100.00;102208.53;2572383;30;138488;-38
2021/11/09 03:12:37;;;;;;;8.60;3.90;;;2.90;99.90;;;1.00;100.00;102212.94;2568152;30;137494;-40
2021/11/09 03:15:10;;;;;;;6.65;3.55;;;2.90;99.90;;;0.97;100.00;102215.88;2570163;30;137431;-40
2021/11/09 03:17:45;;;;;;;7.90;3.60;;;2.90;99.90;;;0.95;100.00;102220.50;2569982;30;138202;-40
2021/11/09 03:45:23;;;;;;;10.90;4.38;;;2.70;99.90;;;0.69;100.00;102225.97;2569115;30;139188;-40
2021/11/09 03:47:53;;;;;;;10.27;4.18;;;2.60;99.90;;;0.70;100.00;102226.84;2566056;30;137593;-40
2021/11/09 03:50:26;;;;;;;8.30;3.25;;;2.60;99.90;;;0.73;100.00;102228.44;2571032;30;138732;-40
2021/11/09 03:58:28;;;;;;;5.97;3.67;;;2.70;99.90;;;0.77;100.00;102236.16;2570340;30;136880;-40
2021/11/09 04:01:01;;;;;;;8.18;4.07;;;2.70;99.90;;;0.77;100.00;102227.25;2569146;30;138439;-38
2021/11/09 04:03:43;;;;;;;9.63;4.10;;;2.70;99.90;;;0.72;100.00;102224.91;2569455;30;137772;-38
2021/11/09 04:06:34;;;;;;;9.80;4.13;;;2.70;99.90;;;0.68;100.00;102232.34;2566903;30;138701;-40
2021/11/09 04:09:18;;;;;;;11.65;4.47;;;2.60;99.90;;;0.68;100.00;102229.63;2567435;30;137520;-40
2021/11/09 04:14:42;;;;;;;10.43;4.15;;;2.60;99.90;;;0.75;100.00;102226.50;2568226;30;136934;-40
2021/11/09 05:11:00;;;;;;;15.35;5.32;;;2.60;99.90;;;0.87;100.00;102239.03;2570567;30;138122;-40
2021/11/09 05:13:28;;;;;;;17.05;6.10;;;2.70;99.90;;;0.93;100.00;102237.72;2567337;30;137647;-40
2021/11/09 05:15:56;;;;;;;15.82;6.47;;;2.80;99.90;;;1.02;100.00;102237.03;2570561;30;138427;-40
2021/11/09 05:18:24;;;;;;;;;;;2.80;99.90;;;1.10;100.00;102236.47;2568221;30;137516;-40
2021/11/09 05:20:53;;;;;;;24.35;6.97;;;2.90;99.90;;;1.20;100.00;102245.53;2571231;30;137411;-40
2021/11/09 05:23:22;;;;;;;17.85;6.10;;;3.00;99.90;;;1.25;100.00;102246.06;2569839;30;136738;-40
2021/11/09 05:25:50;;;;;;;16.27;6.50;;;3.10;99.90;;;1.35;100.00;102250.75;2570158;30;138296;-40
2021/11/09 05:28:19;;;;;;;14.85;7.05;;;3.10;99.90;;;1.40;100.00;102256.63;2568493;30;137392;-40
2021/11/09 05:30:51;;;;;;;18.13;6.70;;;3.20;99.90;;;1.42;100.00;102257.38;2571095;30;137166;-40
2021/11/09 05:33:22;;;;;;;15.73;6.03;;;3.20;99.90;;;1.41;100.00;102250.28;2571015;30;137636;-39
2021/11/09 05:35:50;;;;;;;15.95;6.28;;;3.20;99.90;;;1.37;100.00;102254.19;2567629;30;138042;-40
2021/11/09 05:38:25;;;;;;;18.95;5.93;;;3.20;99.90;;;1.34;100.00;102259.78;2569894;30;138059;-40
2021/11/09 05:40:55;;;;;;;18.98;6.97;;;3.20;99.90;;;1.36;100.00;102257.84;2571244;30;139018;-40
2021/11/09 05:43:23;;;;;;;12.38;6.30;;;3.20;99.90;;;1.35;100.00;102256.97;2569888;30;137620;-40
2021/11/09 05:45:50;;;;;;;;;;;3.20;99.90;;;1.34;100.00;102262.47;2568264;30;138222;-40
2021/11/09 05:48:18;;;;;;;13.20;5.65;;;3.20;99.90;;;1.27;100.00;102262.91;2570294;30;137436;-40
2021/11/09 05:50:46;;;;;;;14.30;5.93;;;3.10;99.90;;;1.22;100.00;102258.88;2569263;30;139140;-40
2021/11/09 05:53:13;;;;;;;13.48;5.45;;;3.10;99.90;;;1.21;100.00;102265.25;2570712;30;137366;-40
2021/11/09 05:55:41;;;;;;;9.57;5.10;;;3.10;99.90;;;1.17;100.00;102266.41;2569677;30;138379;-40
2021/11/09 05:58:10;;;;;;;11.05;5.38;;;3.00;99.90;;;1.11;100.00;102268.59;2571153;30;137029;-40
2021/11/09 06:00:38;;;;;;;10.85;5.07;;;3.00;99.90;;;1.04;100.00;102266.47;2568679;30;138606;-40
2021/11/09 06:03:06;;;;;;;14.93;5.13;;;2.90;99.90;;;0.96;100.00;102272.44;2571516;30;138021;-40
2021/11/09 06:05:33;;;;;;;10.05;4.80;;;2.90;99.90;;;0.91;100.00;102267.41;2569339;30;138237;-40
2021/11/09 06:08:01;;;;;;;13.32;5.60;;;2.80;99.90;;;0.87;100.00;102276.66;2569710;30;137519;-40
2021/11/09 06:10:28;;;;;;;11.73;5.25;;;2.80;99.90;;;0.83;100.00;102281.41;2570120;30;139085;-40
2021/11/09 06:12:56;;;;;;;13.15;5.22;;;2.80;99.90;;;0.80;100.00;102283.47;2570331;30;137821;-40
2021/11/09 06:15:23;;;;;;;11.43;5.10;;;2.70;99.90;;;0.79;100.00;102295.16;2571246;30;138397;-40
2021/11/09 06:17:51;;;;;;;9.05;4.30;;;2.70;99.90;;;0.79;100.00;102300.53;2568615;30;136873;-40
2021/11/09 06:20:18;;;;;;;11.60;5.35;;;2.70;99.90;;;0.79;100.00;102296.03;2573251;30;138234;-40
2021/11/09 06:22:46;;;;;;;11.35;5.25;;;2.70;99.90;;;0.79;100.00;102295.16;2568878;30;137831;-40
2021/11/09 06:25:14;;;;;;;8.35;4.25;;;2.70;99.90;;;0.76;100.00;102303.44;2569447;30;139040;-40
2021/11/09 06:27:42;;;;;;;10.32;4.95;;;2.70;99.90;;;0.73;100.00;102295.59;2570962;30;137361;-39
2021/11/09 06:30:09;;;;;;;;;;;2.60;99.90;;;0.67;100.00;102295.09;2572008;30;139032;-40
2021/11/09 06:32:37;;;;;;;11.10;4.80;;;2.60;99.90;;;0.63;100.00;102304.34;2569780;30;137245;-40
2021/11/09 06:35:06;;;;;;;9.90;4.75;;;2.60;99.90;;;0.59;100.00;102300.16;2569437;30;137249;-39
2021/11/09 06:37:34;;;;;;;10.32;5.03;;;2.60;99.90;;;0.58;100.00;102314.56;2568483;30;137727;-40
2021/11/09 06:40:06;;;;;;;9.85;4.47;;;2.50;99.90;;;0.55;100.00;102307.56;2570926;30;138302;-40
2021/11/09 06:42:35;;;;;;;12.77;4.93;;;2.50;99.90;;;0.52;100.00;102307.81;2568134;30;136919;-40
2021/11/09 06:45:04;;;;;;;8.82;4.75;;;2.50;99.90;;;0.50;100.00;102308.88;2568007;30;138093;-40
2021/11/09 06:47:32;;;;;;;12.77;5.03;;;2.40;99.90;;;0.50;100.00;102316.94;2569137;30;137890;-40
2021/11/09 06:50:00;;;;;;;8.00;4.90;;;2.40;99.90;;;0.54;100.00;102307.72;2570130;30;137716;-40
2021/11/09 06:52:28;;;;;;;13.48;5.50;;;2.40;99.90;;;0.64;100.00;102319.50;2568665;30;137551;-40
2021/11/09 06:54:56;;;;;;;12.05;5.13;;;2.50;99.90;;;0.70;100.00;102323.56;2569100;30;138396;-40
2021/11/09 06:57:39;;;;;;;16.83;5.55;;;2.60;99.90;;;0.77;100.00;102329.34;2571139;30;137713;-40
2021/11/09 07:00:12;;;;;;;;;;;2.60;99.90;;;0.82;100.00;102333.44;2571707;30;139344;-39
2021/11/09 07:02:40;;;;;;;16.63;5.68;;;2.70;99.90;;;0.88;100.00;102337.50;2568040;30;138231;-40
2021/11/09 07:05:08;;;;;;;;;;;2.70;99.90;;;0.92;100.00;102330.06;2567249;30;138745;-39
2021/11/09 07:07:37;;;;;;;12.70;5.35;;;2.70;99.90;;;0.98;100.00;102327.78;2566820;30;137100;-40
2021/11/09 07:10:05;;;;;;;11.95;6.28;;;2.80;99.90;;;1.08;100.00;102343.25;2569511;30;137462;-40
2021/11/09 07:12:34;;;;;;;13.75;5.95;;;2.90;99.90;;;1.17;100.00;102347.06;2568380;30;137765;-40
2021/11/09 07:15:01;;;;;;;14.15;6.40;;;2.90;99.90;;;1.22;100.00;102336.88;2570550;30;138460;-40
2021/11/09 07:17:29;;;;;;;16.55;6.32;;;3.00;99.90;;;1.32;100.00;102345.94;2568038;30;137878;-40
2021/11/09 07:19:58;;;;;;;16.52;6.55;;;3.10;99.90;;;1.41;100.00;102344.41;2569207;30;138142;-40
2021/11/09 07:22:26;;;;;;;16.10;6.38;;;3.20;99.90;;;1.51;100.00;102347.28;2571253;30;137484;-40
2021/11/09 07:24:54;;;;;;;15.55;6.70;;;3.20;99.90;;;1.62;100.00;102352.69;2569654;30;138266;-40
2021/11/09 07:27:22;;;;;;;15.05;6.30;;;3.40;99.90;;;1.71;100.00;102361.91;2569272;30;137477;-40
2021/11/09 07:29:50;;;;;;;14.65;6.72;;;3.40;99.90;;;1.78;100.00;102359.63;2568777;30;139569;-40
2021/11/09 07:32:21;;;;;;;18.42;7.00;;;3.50;99.90;;;1.78;100.00;102357.78;2568869;30;136730;-40
2021/11/09 07:34:49;;;;;;;18.05;7.50;;;3.50;99.90;;;1.85;100.00;102359.00;2567555;30;137346;-39
2021/11/09 07:37:17;;;;;;;13.25;6.47;;;3.60;99.90;;;1.85;100.00;102352.78;2569448;30;137501;-40
2021/11/09 07:39:45;;;;;;;12.43;6.57;;;3.60;99.90;;;1.98;100.00;102358.09;2570164;30;137525;-40
2021/11/09 07:42:15;;;;;;;15.80;7.20;;;3.70;99.90;;;2.08;100.00;102364.47;2570224;30;137460;-40
2021/11/09 07:44:43;;;;;;;16.63;7.60;;;3.80;99.90;;;2.21;100.00;102363.53;2569417;30;138750;-39
2021/11/09 07:47:11;;;;;;;19.67;7.32;;;3.90;99.90;;;2.30;100.00;102357.41;2568224;30;138371;-40
2021/11/09 07:49:38;;;;;;;19.83;7.20;;;4.00;99.90;;;2.42;100.00;102361.84;2571159;30;138085;-40
2021/11/09 07:52:07;;;;;;;19.02;7.53;;;4.10;99.90;;;2.55;100.00;102358.16;2570376;30;137045;-40
2021/11/09 07:54:40;;;;;;;16.02;8.15;;;4.20;99.90;;;2.69;100.00;102359.75;2569543;30;138570;-40
2021/11/09 07:57:11;;;;;;;25.08;8.50;;;4.30;99.90;;;2.82;100.00;102351.56;2568994;30;137566;-40
2021/11/09 08:02:24;;;;;;;21.38;8.25;;;4.60;99.90;;;3.11;100.00;102353.72;2570332;30;137187;-40
2021/11/09 08:05:05;;;;;;;22.10;8.27;;;4.70;99.90;;;3.26;100.00;102352.47;2568402;30;138443;-40
2021/11/09 08:07:36;;;;;;;27.58;8.38;;;4.80;99.90;;;3.46;100.00;102355.38;2567823;30;138331;-40
2021/11/09 08:10:07;;;;;;;26.17;9.27;;;5.00;99.90;;;3.59;100.00;102350.63;2570580;30;138807;-40
2021/11/09 08:12:34;;;;;;;26.75;9.65;;;5.20;99.90;;;3.71;100.00;102347.88;2569033;30;138576;-40
2021/11/09 08:15:02;;;;;;;28.65;9.85;;;5.30;99.90;;;3.85;100.00;102338.63;2566246;30;139361;-40
2021/11/09 08:17:29;;;;;;;;;;;5.40;99.90;;;3.98;100.00;102349.25;2570041;30;138432;-40
2021/11/09 08:19:57;;;;;;;24.63;9.38;;;5.50;99.90;;;4.06;100.00;102341.34;2567059;30;139484;-40
2021/11/09 08:22:25;;;;;;;24.75;10.60;;;5.60;99.90;;;4.12;100.00;102330.00;2568892;30;137886;-39
2021/11/09 08:24:52;;;;;;;26.77;9.20;;;5.70;99.90;;;4.22;100.00;102334.59;2570478;30;137372;-40
2021/11/09 08:27:20;;;;;;;27.23;10.35;;;5.80;99.90;;;4.34;100.00;102348.88;2569196;30;137595;-40
2021/11/09 08:29:51;;;;;;;19.55;9.23;;;5.90;99.90;;;4.41;100.00;102350.91;2569751;30;139124;-40
2021/11/09 08:32:20;;;;;;;21.70;10.32;;;5.90;99.90;;;4.52;100.00;102351.84;2568154;30;137663;-40
2021/11/09 08:34:48;;;;;;;28.02;10.23;;;6.00;99.90;;;4.60;100.00;102354.72;2568555;30;139295;-40
2021/11/09 08:37:16;;;;;;;;;;;6.10;99.90;;;4.69;100.00;102353.03;2569194;30;137079;-40
2021/11/09 08:39:44;;;;;;;19.58;9.27;;;6.20;99.90;;;4.77;100.00;102358.63;2570676;30;137848;-40
2021/11/09 08:42:18;;;;;;;19.77;9.65;;;6.30;99.90;;;4.87;100.00;102356.78;2569578;30;136629;-40
2021/11/09 08:47:22;;;;;;;22.45;8.88;;;6.40;99.90;;;5.10;100.00;102361.16;2569047;30;138538;-40
2021/11/09 08:49:51;;;;;;;21.38;9.13;;;6.50;99.90;;;5.20;100.00;102359.31;2567958;30;137849;-40
2021/11/09 08:52:24;;;;;;;23.35;8.45;;;6.70;99.90;;;5.28;100.00;102359.47;2567371;30;137000;-40
2021/11/09 08:55:15;;;;;;;14.23;7.90;;;6.70;99.90;;;5.41;100.00;102359.19;2569932;30;138333;-40
2021/11/09 08:58:01;;;;;;;19.00;8.23;;;6.80;99.90;;;5.54;100.00;102356.22;2567656;30;136907;-38
2021/11/09 09:06:02;;;;;;;16.88;7.63;;;7.20;99.90;;;5.87;100.00;102366.78;2567140;30;138014;-40
2021/11/09 09:08:33;;;;;;;15.18;7.18;;;7.30;99.90;;;5.90;100.00;102355.66;2569617;30;137401;-40
2021/11/09 09:11:01;;;;;;;15.07;6.75;;;7.40;99.90;;;6.04;100.00;102366.09;2572567;30;138133;-38
2021/11/09 09:13:29;;;;;;;14.32;6.50;;;7.50;99.90;;;6.18;100.00;102374.75;2568932;30;136965;-39
2021/11/09 09:15:57;;;;;;;15.50;7.38;;;7.60;99.90;;;6.25;99.82;102373.19;2568051;30;137387;-38
2021/11/09 09:18:24;;;;;;;;;;;7.60;99.90;;;6.35;97.83;102369.59;2567651;30;137102;-39
2021/11/09 09:21:09;;;;;;;17.15;6.80;;;7.70;99.90;;;6.43;97.50;102367.88;2566695;30;138651;-38
2021/11/09 09:23:42;;;;;;;14.60;6.30;;;7.80;99.90;;;6.56;97.25;102372.09;2566942;30;139404;-39
2021/11/09 09:26:36;;;;;;;16.55;6.07;;;7.90;99.90;;;6.68;96.76;102367.34;2566786;30;138401;-39
2021/11/09 09:59:07;;;;;;;11.93;5.13;;;8.90;99.90;;;7.62;85.81;102387.94;2567801;30;138161;-39
2021/11/09 10:02:12;;;;;;;12.57;4.60;;;9.00;99.90;;;7.72;85.98;102395.19;2566706;30;138161;-39
2021/11/09 10:04:44;;;;;;;12.77;4.32;;;9.00;99.90;;;7.79;83.41;102388.13;2567902;30;137937;-39
2021/11/09 10:07:14;;;;;;;11.45;3.97;;;9.20;99.90;;;7.83;83.30;102394.94;2566037;30;137947;-39
2021/11/09 10:09:46;;;;;;;12.05;4.90;;;9.20;99.90;;;7.99;83.75;102398.81;2567835;30;138619;-39
2021/11/09 10:12:35;;;;;;;15.30;4.10;;;9.30;99.90;;;8.05;81.62;102384.59;2569032;30;137234;-39
2021/11/09 10:15:13;;;;;;;10.80;3.53;;;9.40;99.90;;;8.15;82.25;102390.78;2568561;30;138350;-39
2021/11/09 10:17:46;;;;;;;9.07;3.70;;;9.40;99.90;;;8.24;81.68;102391.69;2568504;30;137614;-39
2021/11/09 10:20:21;;;;;;;13.13;3.88;;;9.50;99.90;;;8.31;80.45;102398.22;2565513;30;137414;-39
2021/11/09 10:23:02;;;;;;;11.00;3.88;;;9.60;99.90;;;8.41;80.25;102398.09;2568830;30;137764;-39
2021/11/09 10:25:30;;;;;;;12.80;4.00;;;9.70;99.90;;;8.53;79.20;102393.28;2567501;30;138343;-39
2021/11/09 10:28:18;;;;;;;12.88;4.63;;;9.80;99.90;;;8.62;78.91;102399.63;2566102;30;137281;-39
2021/11/09 10:30:52;;;;;;;10.13;4.03;;;9.90;99.90;;;8.70;79.20;102394.22;2567539;30;137087;-39
2021/11/09 10:33:25;;;;;;;12.45;3.78;;;10.00;99.90;;;8.77;78.50;102397.16;2568501;30;137028;-39
2021/11/09 10:35:56;;;;;;;11.25;4.05;;;10.00;99.90;;;8.80;77.17;102396.00;2567348;30;138418;-39
2021/11/09 10:38:33;;;;;;;10.77;4.38;;;10.10;99.90;;;8.88;76.68;102394.16;2567629;30;138317;-39
2021/11/09 10:41:04;;;;;;;8.95;3.67;;;10.20;99.90;;;8.95;76.07;102397.09;2568047;30;138328;-39
2021/11/09 10:43:32;;;;;;;9.32;4.03;;;10.20;99.90;;;9.01;75.12;102392.84;2567860;30;138465;-39
2021/11/09 10:46:00;;;;;;;10.73;4.25;;;10.30;99.90;;;9.10;76.63;102386.41;2565508;30;138782;-39
2021/11/09 10:48:28;;;;;;;;;;;10.40;99.90;;;9.17;75.68;102394.78;2569111;30;138485;-39
2021/11/09 10:51:00;;;;;;;12.80;3.78;;;10.40;99.90;;;9.26;74.98;102392.94;2566226;30;138121;-39
2021/11/09 10:53:39;;;;;;;13.98;4.20;;;10.50;99.90;;;9.29;75.97;102379.88;2567806;30;139817;-39
2021/11/09 11:04:40;;;;;;;13.30;3.88;;;10.80;99.90;;;9.62;73.47;102384.50;2566048;30;136879;-39
2021/11/09 11:07:12;;;;;;;8.82;3.75;;;10.90;99.90;;;9.64;71.78;102383.34;2568005;30;138417;-39
2021/11/09 11:09:57;;;;;;;8.68;3.88;;;10.90;99.90;;;9.71;73.14;102377.22;2564783;30;137478;-39
2021/11/09 11:12:27;;;;;;;12.60;3.97;;;11.00;99.90;;;9.74;72.14;102377.72;2568064;30;138361;-40
2021/11/09 11:14:55;;;;;;;10.35;3.67;;;11.00;99.90;;;9.80;73.41;102370.72;2567684;30;137514;-39
2021/11/09 11:17:22;;;;;;;12.35;3.42;;;11.10;99.90;;;9.88;72.54;102365.31;2568104;30;137544;-39
2021/11/09 11:19:57;;;;;;;11.43;3.70;;;11.10;99.90;;;9.96;70.69;102369.03;2567944;30;137661;-39
2021/11/09 11:22:28;;;;;;;8.10;3.47;;;11.20;99.90;;;10.04;70.90;102372.63;2568978;30;137869;-39
2021/11/09 11:24:59;;;;;;;10.93;3.65;;;11.30;99.90;;;10.12;71.21;102362.72;2568140;30;136851;-39
2021/11/09 11:27:32;;;;;;;11.57;3.58;;;11.30;99.90;;;10.16;71.17;102362.22;2567701;30;137356;-39
2021/11/09 11:30:03;;;;;;;8.73;3.67;;;11.40;99.90;;;10.21;71.25;102359.81;2568714;30;137901;-39
2021/11/09 11:32:31;;;;;;;10.45;3.50;;;11.40;99.90;;;10.26;70.59;102358.44;2565934;30;138606;-39
2021/11/09 11:34:59;;;;;;;10.45;3.72;;;11.50;99.90;;;10.33;71.01;102365.78;2567519;30;138798;-39
2021/11/09 11:37:26;;;;;;;10.70;3.25;;;11.50;99.90;;;10.36;69.26;102350.94;2567641;30;138376;-39
2021/11/09 11:40:03;;;;;;;10.57;3.33;;;11.60;99.90;;;10.35;70.41;102350.06;2568976;30;137608;-39
2021/11/09 11:42:39;;;;;;;12.50;3.80;;;11.60;99.90;;;10.36;69.58;102350.94;2568263;30;137776;-39
2021/11/09 11:45:08;;;;;;;7.18;3.10;;;11.60;99.90;;;10.42;70.99;102354.88;2566639;30;138055;-39
2021/11/09 11:47:35;;;;;;;9.52;2.78;;;11.70;99.90;;;10.44;68.50;102352.81;2568983;30;137493;-39
2021/11/09 11:50:11;;;;;;;9.10;3.53;;;11.70;99.90;;;10.46;67.30;102343.44;2567909;30;137613;-39
2021/11/09 11:52:49;;;;;;;8.20;3.40;;;11.70;99.90;;;10.49;68.51;102336.78;2568300;30;138600;-39
2021/11/09 11:55:27;;;;;;;8.88;2.92;;;11.80;99.90;;;10.56;67.01;102335.06;2566486;30;136973;-39
2021/11/09 11:58:15;;;;;;;8.07;2.90;;;11.80;99.90;;;10.60;65.97;102330.06;2568927;30;139175;-39
2021/11/09 12:00:56;;;;;;;7.25;2.78;;;11.90;99.90;;;10.57;65.97;102333.16;2568209;30;136823;-39
2021/11/09 12:03:24;;;;;;;8.05;2.70;;;11.90;99.90;;;10.64;65.36;102324.09;2567951;30;137113;-39
2021/11/09 12:05:52;;;;;;;8.85;2.58;;;11.90;99.90;;;10.72;65.94;102320.50;2566949;30;136939;-39
2021/11/09 12:08:42;;;;;;;7.85;2.35;;;11.90;99.90;;;10.81;64.77;102321.31;2567144;30;137481;-39
2021/11/09 12:11:35;;;;;;;7.65;2.85;;;12.00;99.90;;;10.76;63.41;102315.53;2567481;30;138316;-39
2021/11/09 12:14:11;;;;;;;6.50;2.10;;;12.10;99.90;;;10.83;63.80;102308.34;2565400;30;137584;-39
2021/11/09 12:16:54;;;;;;;11.85;2.60;;;12.10;99.90;;;10.86;62.15;102316.16;2567074;30;137180;-39
2021/11/09 12:19:34;;;;;;;8.52;2.38;;;12.10;99.90;;;10.87;63.09;102315.13;2567618;30;138505;-39
2021/11/09 12:22:09;;;;;;;6.43;2.70;;;12.20;99.90;;;10.88;62.13;102305.09;2566931;30;137826;-39
2021/11/09 12:25:00;;;;;;;9.75;2.92;;;12.20;99.90;;;10.87;62.66;102317.00;2567928;30;138326;-39
2021/11/09 12:27:54;;;;;;;7.05;2.50;;;12.20;99.90;;;10.84;62.49;102306.44;2565748;30;137902;-38
2021/11/09 12:30:34;;;;;;;7.47;2.78;;;12.10;99.90;;;10.83;61.61;102293.81;2565277;30;139286;-39
2021/11/09 12:33:27;;;;;;;7.10;2.40;;;12.20;99.90;;;10.88;61.50;102286.81;2567256;30;137280;-39
2021/11/09 12:36:11;;;;;;;7.75;2.45;;;12.20;99.90;;;10.90;62.04;102283.91;2566905;30;138378;-39
2021/11/09 12:38:52;;;;;;;9.10;2.75;;;12.20;99.90;;;10.98;62.76;102285.72;2568650;30;136951;-39
2021/11/09 12:41:28;;;;;;;8.32;2.35;;;12.30;99.90;;;10.96;61.83;102285.91;2565528;38;138935;-39
2021/11/09 12:44:06;;;;;;;8.23;2.67;;;12.30;99.90;;;10.96;62.20;102280.44;2567232;30;137012;-39
2021/11/09 12:46:39;;;;;;;7.05;2.72;;;12.30;99.90;;;11.02;62.88;102276.16;2565632;30;138794;-39
2021/11/09 12:49:06;;;;;;;5.85;2.50;;;12.30;99.90;;;11.02;63.30;102277.00;2567252;30;136841;-39
2021/11/09 12:51:45;;;;;;;8.85;3.40;;;12.30;99.90;;;11.00;60.97;102279.06;2568513;30;138146;-39
2021/11/09 12:54:20;;;;;;;8.50;2.80;;;12.30;99.90;;;11.02;60.47;102285.19;2566782;30;136975;-39
2021/11/09 12:56:57;;;;;;;8.00;2.60;;;12.30;99.90;;;11.03;61.82;102278.69;2568348;30;137490;-39